createdAt,value
2022-10-09T00:02:09.318Z,99443.82
2022-10-09T00:05:15.573Z,99455.60
2022-10-09T00:08:21.704Z,99464.06
2022-10-09T00:11:27.567Z,99470.91
2022-10-09T00:14:33.829Z,99469.85
2022-10-09T00:17:39.938Z,99471.80
2022-10-09T00:20:45.608Z,99471.68
2022-10-09T00:23:53.036Z,99464.73
2022-10-09T00:26:59.231Z,99460.89
2022-10-09T00:30:06.039Z,99466.17
2022-10-09T00:33:12.140Z,99460.41
2022-10-09T00:36:17.583Z,99452.14
2022-10-09T00:39:23.767Z,99456.73
2022-10-09T00:42:30.024Z,99462.10
2022-10-09T00:45:36.387Z,99465.89
2022-10-09T00:48:42.488Z,99462.34
2022-10-09T00:51:48.817Z,99463.26
2022-10-09T00:54:56.619Z,99471.39
2022-10-09T00:58:03.726Z,99474.21
2022-10-09T01:01:09.917Z,99475.72
2022-10-09T01:04:16.470Z,99482.95
2022-10-09T01:07:30.889Z,99481.33
2022-10-09T01:10:43.118Z,99481.23
2022-10-09T01:13:59.306Z,99477.48
2022-10-09T01:17:15.203Z,99479.61
2022-10-09T01:20:27.859Z,99486.77
2022-10-09T01:24:10.568Z,99482.27
2022-10-09T01:27:20.158Z,99492.45
2022-10-09T01:30:26.203Z,99488.22
2022-10-09T01:33:31.999Z,99484.46
2022-10-09T01:36:36.970Z,99492.39
2022-10-09T01:39:45.911Z,99492.65
2022-10-09T01:42:52.214Z,99488.94
2022-10-09T01:46:25.157Z,99495.38
2022-10-09T01:49:49.844Z,99503.23
2022-10-09T01:53:00.588Z,99510.41
2022-10-09T01:56:14.328Z,99514.35
2022-10-09T01:59:21.923Z,99518.70
2022-10-09T02:02:29.512Z,99534.77
2022-10-09T02:05:36.916Z,99537.78
2022-10-09T02:08:45.947Z,99542.52
2022-10-09T02:11:56.924Z,99547.62
2022-10-09T02:15:03.192Z,99548.59
2022-10-09T02:18:15.000Z,99554.36
2022-10-09T02:21:30.593Z,99569.16
2022-10-09T02:24:39.090Z,99584.09
2022-10-09T02:27:45.473Z,99584.71
2022-10-09T02:30:58.583Z,99583.96
2022-10-09T02:34:07.003Z,99586.02
2022-10-09T02:37:13.415Z,99585.67
2022-10-09T02:40:19.619Z,99593.11
2022-10-09T02:43:25.979Z,99598.75
2022-10-09T02:46:32.093Z,99604.27
2022-10-09T02:49:38.376Z,99608.05
2022-10-09T02:52:42.962Z,99612.61
2022-10-09T02:55:49.011Z,99613.96
2022-10-09T02:58:55.499Z,99610.58
2022-10-09T03:02:01.945Z,99607.02
2022-10-09T03:05:09.579Z,99604.35
2022-10-09T03:08:16.213Z,99611.40
2022-10-09T03:11:24.632Z,99618.63
2022-10-09T03:14:30.687Z,99624.88
2022-10-09T03:17:36.762Z,99628.20
2022-10-09T03:20:42.900Z,99634.34
2022-10-09T03:23:47.469Z,99638.50
2022-10-09T03:26:53.535Z,99647.37
2022-10-09T03:29:59.862Z,99646.34
2022-10-09T03:33:06.026Z,99646.67
2022-10-09T03:36:11.075Z,99647.94
2022-10-09T03:39:17.127Z,99650.42
2022-10-09T03:42:23.267Z,99653.95
2022-10-09T03:45:27.772Z,99652.77
2022-10-09T03:48:33.931Z,99655.04
2022-10-09T03:51:38.446Z,99658.23
2022-10-09T03:54:44.576Z,99660.81
2022-10-09T03:57:49.123Z,99667.92
2022-10-09T04:00:56.148Z,99667.98
2022-10-09T04:04:02.399Z,99668.57
2022-10-09T04:07:06.902Z,99672.51
2022-10-09T04:10:13.389Z,99674.67
2022-10-09T04:13:19.614Z,99674.06
2022-10-09T04:16:24.103Z,99681.23
2022-10-09T04:19:30.210Z,99682.13
2022-10-09T04:22:36.351Z,99689.13
2022-10-09T04:25:42.335Z,99691.35
2022-10-09T04:28:48.533Z,99692.44
2022-10-09T04:31:53.110Z,99693.89
2022-10-09T04:34:59.376Z,99696.55
2022-10-09T04:38:05.382Z,99698.09
2022-10-09T04:41:11.638Z,99703.70
2022-10-09T04:44:17.895Z,99702.81
2022-10-09T04:47:24.101Z,99707.92
2022-10-09T04:50:28.602Z,99712.70
2022-10-09T04:53:35.082Z,99718.22
2022-10-09T04:56:41.308Z,99721.98
2022-10-09T04:59:45.766Z,99725.95
2022-10-09T05:02:52.246Z,99733.33
2022-10-09T05:06:04.084Z,99736.84
2022-10-09T05:09:10.583Z,99741.30
2022-10-09T05:12:17.057Z,99742.89
2022-10-09T05:15:23.528Z,99744.52
2022-10-09T05:18:29.902Z,99749.65
2022-10-09T05:21:37.159Z,99752.86
2022-10-09T05:24:43.256Z,99759.34
2022-10-09T05:27:49.479Z,99763.48
2022-10-09T05:30:53.958Z,99768.34
2022-10-09T05:34:01.853Z,99770.31
2022-10-09T05:37:08.024Z,99774.69
2022-10-09T05:40:12.739Z,99777.80
2022-10-09T05:43:18.850Z,99786.05
2022-10-09T05:46:24.401Z,99788.32
2022-10-09T05:49:30.577Z,99790.71
2022-10-09T05:52:36.376Z,99796.66
2022-10-09T05:55:40.917Z,99802.25
2022-10-09T05:58:50.948Z,99811.33
2022-10-09T06:01:57.148Z,99813.71
2022-10-09T06:05:01.647Z,99815.55
2022-10-09T06:08:07.905Z,99820.67
2022-10-09T06:11:16.179Z,99821.63
2022-10-09T06:14:23.220Z,99823.02
2022-10-09T06:17:29.351Z,99828.27
2022-10-09T06:20:33.992Z,99833.77
2022-10-09T06:23:40.379Z,99837.64
2022-10-09T06:26:46.691Z,99842.39
2022-10-09T06:29:53.480Z,99844.70
2022-10-09T06:32:59.627Z,99845.35
2022-10-09T06:36:10.102Z,99849.46
2022-10-09T06:39:17.040Z,99855.92
2022-10-09T06:42:23.073Z,99859.55
2022-10-09T06:45:29.342Z,99867.52
2022-10-09T06:48:36.760Z,99873.64
2022-10-09T06:51:42.902Z,99881.70
2022-10-09T06:54:47.451Z,99886.29
2022-10-09T06:57:53.583Z,99883.44
2022-10-09T07:01:05.035Z,99888.06
2022-10-09T07:04:14.554Z,99895.31
2022-10-09T07:07:20.837Z,99898.29
2022-10-09T07:10:25.501Z,99898.11
2022-10-09T07:13:32.455Z,99898.30
2022-10-09T07:16:40.251Z,99901.30
2022-10-09T07:19:46.348Z,99904.85
2022-10-09T07:22:52.499Z,99905.47
2022-10-09T07:25:56.991Z,99910.54
2022-10-09T07:29:03.202Z,99916.34
2022-10-09T07:32:10.507Z,99918.56
2022-10-09T07:35:17.182Z,99923.38
2022-10-09T07:38:24.554Z,99926.70
2022-10-09T07:41:31.784Z,99922.75
2022-10-09T07:44:38.226Z,99925.94
2022-10-09T07:47:44.396Z,99923.63
2022-10-09T07:50:49.024Z,99920.73
2022-10-09T07:53:56.520Z,99928.95
2022-10-09T07:57:02.766Z,99931.30
2022-10-09T08:00:11.259Z,99933.48
2022-10-09T08:03:17.456Z,99932.84
2022-10-09T08:06:22.304Z,99929.67
2022-10-09T08:09:28.546Z,99929.23
2022-10-09T08:12:34.731Z,99930.04
2022-10-09T08:15:43.142Z,99935.19
2022-10-09T08:18:49.635Z,99936.42
2022-10-09T08:21:57.341Z,99937.17
2022-10-09T08:25:07.312Z,99941.27
2022-10-09T08:28:13.433Z,99940.71
2022-10-09T08:31:18.850Z,99944.64
2022-10-09T08:34:25.163Z,99942.67
2022-10-09T08:37:29.675Z,99942.36
2022-10-09T08:40:46.606Z,99946.52
2022-10-09T08:43:58.436Z,99949.83
2022-10-09T08:47:10.401Z,99948.30
2022-10-09T08:50:23.003Z,99952.27
2022-10-09T08:53:37.350Z,99960.26
2022-10-09T08:56:43.643Z,99968.65
2022-10-09T08:59:50.196Z,99971.91
2022-10-09T09:03:19.078Z,99969.48
2022-10-09T09:06:38.600Z,99966.25
2022-10-09T09:09:53.743Z,99969.09
2022-10-09T09:13:07.897Z,99966.70
2022-10-09T09:16:23.802Z,99968.28
2022-10-09T09:19:39.690Z,99970.92
2022-10-09T09:22:49.746Z,99971.13
2022-10-09T09:25:56.457Z,99966.51
2022-10-09T09:29:06.264Z,99961.41
2022-10-09T09:32:20.636Z,99955.35
2022-10-09T09:35:35.999Z,99957.98
2022-10-09T09:39:03.225Z,99957.31
2022-10-09T09:42:16.817Z,99964.80
2022-10-09T09:45:25.311Z,99961.79
2022-10-09T09:48:36.795Z,99958.83
2022-10-09T09:51:43.302Z,99959.84
2022-10-09T09:54:50.832Z,99965.45
2022-10-09T09:58:03.796Z,99970.39
2022-10-09T10:01:21.119Z,99969.98
2022-10-09T10:04:29.357Z,99964.66
2022-10-09T10:07:37.097Z,99965.49
2022-10-09T10:10:48.107Z,99966.53
2022-10-09T10:13:54.380Z,99964.36
2022-10-09T10:17:02.512Z,99965.77
2022-10-09T10:20:12.538Z,99966.67
2022-10-09T10:23:37.027Z,99969.52
2022-10-09T10:26:48.786Z,99962.99
2022-10-09T10:29:59.641Z,99962.27
2022-10-09T10:33:14.483Z,99959.51
2022-10-09T10:36:20.773Z,99953.27
2022-10-09T10:39:37.235Z,99947.01
2022-10-09T10:42:56.076Z,99944.93
2022-10-09T10:46:13.595Z,99949.20
2022-10-09T10:49:23.380Z,99948.75
2022-10-09T10:52:46.035Z,99948.18
2022-10-09T10:55:59.224Z,99953.67
2022-10-09T10:59:29.296Z,99951.44
2022-10-09T11:02:57.822Z,99950.94
2022-10-09T11:06:12.687Z,99951.61
2022-10-09T11:09:26.067Z,99947.59
2022-10-09T11:12:48.211Z,99944.86
2022-10-09T11:16:07.531Z,99939.45
2022-10-09T11:19:45.402Z,99941.86
2022-10-09T11:23:10.800Z,99938.35
2022-10-09T11:26:27.323Z,99944.25
2022-10-09T11:29:38.615Z,99939.50
2022-10-09T11:32:55.818Z,99934.54
2022-10-09T11:36:06.996Z,99926.30
2022-10-09T11:39:18.317Z,99921.64
2022-10-09T11:42:26.393Z,99923.53
2022-10-09T11:45:42.987Z,99926.77
2022-10-09T11:48:55.515Z,99922.59
2022-10-09T11:52:09.658Z,99917.11
2022-10-09T11:55:25.083Z,99916.89
2022-10-09T11:58:31.300Z,99919.65
2022-10-09T12:01:40.045Z,99916.31
2022-10-09T12:04:54.856Z,99918.38
2022-10-09T12:08:15.413Z,99919.49
2022-10-09T12:11:25.632Z,99916.34
2022-10-09T12:14:32.536Z,99913.95
2022-10-09T12:17:47.788Z,99914.95
2022-10-09T12:20:57.022Z,99905.50
2022-10-09T12:24:03.796Z,99902.02
2022-10-09T12:27:18.798Z,99901.19
2022-10-09T12:30:27.129Z,99905.98
2022-10-09T12:33:39.830Z,99900.83
2022-10-09T12:36:45.988Z,99893.77
2022-10-09T12:39:52.724Z,99893.35
2022-10-09T12:43:01.842Z,99895.80
2022-10-09T12:46:08.110Z,99900.45
2022-10-09T12:49:22.804Z,99903.73
2022-10-09T12:52:29.412Z,99905.68
2022-10-09T12:55:37.607Z,99902.55
2022-10-09T12:58:44.688Z,99900.36
2022-10-09T13:01:52.482Z,99899.70
2022-10-09T13:05:02.277Z,99897.48
2022-10-09T13:08:22.462Z,99899.41
2022-10-09T13:11:34.449Z,99897.03
2022-10-09T13:14:46.602Z,99898.13
2022-10-09T13:17:52.777Z,99896.00
2022-10-09T13:21:07.655Z,99893.78
2022-10-09T13:24:14.479Z,99890.76
2022-10-09T13:27:21.339Z,99893.77
2022-10-09T13:30:28.469Z,99890.36
2022-10-09T13:33:34.803Z,99889.11
2022-10-09T13:36:40.981Z,99887.30
2022-10-09T13:39:47.267Z,99884.80
2022-10-09T13:42:56.984Z,99883.39
2022-10-09T13:46:03.053Z,99879.77
2022-10-09T13:49:09.187Z,99877.20
2022-10-09T13:52:15.323Z,99877.64
2022-10-09T13:55:21.685Z,99877.96
2022-10-09T13:58:27.886Z,99877.54
2022-10-09T14:01:34.048Z,99881.64
2022-10-09T14:04:40.181Z,99882.23
2022-10-09T14:07:46.363Z,99878.03
2022-10-09T14:10:52.467Z,99880.42
2022-10-09T14:13:59.625Z,99878.52
2022-10-09T14:17:05.842Z,99879.34
2022-10-09T14:20:12.786Z,99877.26
2022-10-09T14:23:19.026Z,99875.43
2022-10-09T14:26:25.917Z,99873.09
2022-10-09T14:29:32.075Z,99876.25
2022-10-09T14:32:38.139Z,99867.43
2022-10-09T14:35:42.591Z,99867.92
2022-10-09T14:38:49.881Z,99868.81
2022-10-09T14:41:55.984Z,99868.45
2022-10-09T14:45:00.525Z,99869.33
2022-10-09T14:48:07.060Z,99870.59
2022-10-09T14:51:15.167Z,99865.27
2022-10-09T14:54:21.510Z,99869.06
2022-10-09T14:57:30.233Z,99875.48
2022-10-09T15:00:39.035Z,99880.42
2022-10-09T15:03:43.795Z,99879.92
2022-10-09T15:06:50.103Z,99878.23
2022-10-09T15:09:57.040Z,99877.30
2022-10-09T15:13:03.203Z,99873.80
2022-10-09T15:16:08.770Z,99876.67
2022-10-09T15:19:14.999Z,99872.43
2022-10-09T15:22:20.978Z,99870.11
2022-10-09T15:25:31.558Z,99871.37
2022-10-09T15:28:38.499Z,99871.78
2022-10-09T15:31:44.897Z,99870.25
2022-10-09T15:34:51.132Z,99869.77
2022-10-09T15:37:57.213Z,99866.79
2022-10-09T15:41:01.854Z,99866.55
2022-10-09T15:44:09.792Z,99865.75
2022-10-09T15:47:16.525Z,99866.69
2022-10-09T15:50:23.006Z,99867.53
2022-10-09T15:53:27.552Z,99870.23
2022-10-09T15:56:38.757Z,99874.79
2022-10-09T15:59:46.174Z,99876.39
2022-10-09T16:02:52.580Z,99875.08
2022-10-09T16:06:02.820Z,99876.41
2022-10-09T16:09:09.051Z,99876.13
2022-10-09T16:12:15.471Z,99877.85
2022-10-09T16:15:21.622Z,99883.50
2022-10-09T16:18:26.394Z,99886.91
2022-10-09T16:21:33.264Z,99887.85
2022-10-09T16:24:39.483Z,99894.07
2022-10-09T16:27:43.941Z,99894.65
2022-10-09T16:30:50.084Z,99895.15
2022-10-09T16:33:54.527Z,99894.41
2022-10-09T16:37:02.397Z,99900.02
2022-10-09T16:40:10.290Z,99900.03
2022-10-09T16:43:17.019Z,99901.77
2022-10-09T16:46:25.214Z,99906.63
2022-10-09T16:49:31.448Z,99909.11
2022-10-09T16:52:36.010Z,99917.13
2022-10-09T16:55:42.138Z,99919.34
2022-10-09T16:58:46.607Z,99922.62
2022-10-09T17:01:53.388Z,99921.95
2022-10-09T17:04:59.591Z,99917.36
2022-10-09T17:08:04.091Z,99923.02
2022-10-09T17:11:13.115Z,99928.02
2022-10-09T17:14:19.266Z,99932.50
2022-10-09T17:17:23.814Z,99933.10
2022-10-09T17:20:30.031Z,99935.11
2022-10-09T17:23:34.492Z,99938.18
2022-10-09T17:26:40.599Z,99941.86
2022-10-09T17:29:46.688Z,99941.02
2022-10-09T17:32:53.097Z,99940.83
2022-10-09T17:46:58.032Z,99950.55
2022-10-09T17:50:02.794Z,99951.86
2022-10-09T17:53:09.040Z,99950.65
2022-10-09T17:56:13.589Z,99952.63
2022-10-09T17:59:19.809Z,99952.67
2022-10-09T18:02:24.280Z,99950.34
2022-10-09T18:05:30.573Z,99952.11
2022-10-09T18:08:37.006Z,99949.43
2022-10-09T18:11:43.170Z,99952.59
2022-10-09T18:14:47.731Z,99956.64
2022-10-09T18:17:53.814Z,99958.41
2022-10-09T18:21:06.092Z,99963.02
2022-10-09T18:24:12.376Z,99962.98
2022-10-09T18:27:18.603Z,99964.05
2022-10-09T18:30:23.209Z,99966.93
2022-10-09T18:33:29.397Z,99967.87
2022-10-09T18:36:35.085Z,99970.42
2022-10-09T18:39:41.207Z,99973.65
2022-10-09T18:42:47.606Z,99979.81
2022-10-09T18:45:54.761Z,99979.55
2022-10-09T18:49:01.124Z,99981.83
2022-10-09T18:52:10.630Z,99986.85
2022-10-09T18:55:20.116Z,99990.60
2022-10-09T18:58:27.098Z,99987.70
2022-10-09T19:01:33.280Z,99990.06
2022-10-09T19:04:37.788Z,99994.92
2022-10-09T19:07:43.905Z,99997.89
2022-10-09T19:10:54.098Z,99999.45
2022-10-09T19:14:00.972Z,99997.26
2022-10-09T19:17:08.060Z,99997.62
2022-10-09T19:20:14.665Z,99997.34
2022-10-09T19:23:20.897Z,99996.63
2022-10-09T19:26:25.155Z,100002.52
2022-10-09T19:29:31.278Z,100000.09
2022-10-09T19:32:37.209Z,99999.71
2022-10-09T19:35:50.230Z,100000.91
2022-10-09T19:38:56.253Z,100000.45
2022-10-09T19:42:02.373Z,100000.28
2022-10-09T19:45:10.473Z,100003.42
2022-10-09T19:48:16.989Z,100004.56
2022-10-09T19:51:25.044Z,100005.11
2022-10-09T19:54:32.173Z,100005.65
2022-10-09T19:57:38.431Z,100008.50
2022-10-09T20:00:46.946Z,100006.21
2022-10-09T20:03:57.137Z,100006.13
2022-10-09T20:07:03.179Z,100012.83
2022-10-09T20:10:10.528Z,100015.30
2022-10-09T20:13:16.823Z,100016.20
2022-10-09T20:16:21.777Z,100013.70
2022-10-09T20:19:30.994Z,100013.00
2022-10-09T20:22:37.120Z,100018.88
2022-10-09T20:25:43.218Z,100019.69
2022-10-09T20:28:50.349Z,100018.55
2022-10-09T20:31:56.584Z,100018.16
2022-10-09T20:35:02.719Z,100015.69
2022-10-09T20:38:08.725Z,100019.98
2022-10-09T20:41:14.962Z,100015.41
2022-10-09T20:44:19.192Z,100015.68
2022-10-09T20:47:25.493Z,100016.93
2022-10-09T20:50:29.711Z,100014.80
2022-10-09T20:53:36.034Z,100017.17
2022-10-09T20:56:40.608Z,100018.77
2022-10-09T20:59:47.061Z,100016.52
2022-10-09T21:02:53.126Z,100011.50
2022-10-09T21:05:59.352Z,100011.65
2022-10-09T21:09:05.970Z,100015.17
2022-10-09T21:12:12.241Z,100012.89
2022-10-09T21:15:18.547Z,100010.67
2022-10-09T21:18:23.087Z,100008.94
2022-10-09T21:21:30.352Z,100009.11
2022-10-09T21:24:36.449Z,100007.89
2022-10-09T21:27:42.579Z,100009.15
2022-10-09T21:30:48.640Z,100008.16
2022-10-09T21:33:55.350Z,100006.11
2022-10-09T21:37:20.289Z,100002.93
2022-10-09T21:40:25.895Z,100001.09
2022-10-09T21:43:31.938Z,100001.94
2022-10-09T21:46:41.559Z,100005.79
2022-10-09T21:49:47.885Z,100005.45
2022-10-09T21:52:52.403Z,100005.15
2022-10-09T21:55:58.867Z,100001.55
2022-10-09T21:59:05.127Z,99999.61
2022-10-09T22:02:09.559Z,100002.02
2022-10-09T22:05:15.788Z,100001.50
2022-10-09T22:08:22.145Z,100007.55
2022-10-09T22:11:26.638Z,100005.31
2022-10-09T22:14:33.029Z,100001.45
2022-10-09T22:17:37.381Z,99999.73
2022-10-09T22:20:45.376Z,99996.14
2022-10-09T22:23:51.577Z,99994.38
2022-10-09T22:26:57.567Z,99995.48
2022-10-09T22:30:04.007Z,99992.45
2022-10-09T22:33:08.231Z,99993.06
2022-10-09T22:36:16.270Z,99993.67
2022-10-09T22:39:22.396Z,99993.77
2022-10-09T22:42:28.531Z,99989.91
2022-10-09T22:45:37.690Z,99987.57
2022-10-09T22:48:44.936Z,99989.96
2022-10-09T22:51:51.061Z,99994.43
2022-10-09T22:54:57.255Z,99993.77
2022-10-09T22:58:03.295Z,99996.05
2022-10-09T23:01:12.421Z,99997.61
2022-10-09T23:04:20.454Z,99993.84
2022-10-09T23:07:26.577Z,99995.77
2022-10-09T23:10:32.801Z,99999.64
2022-10-09T23:13:37.388Z,99992.91
2022-10-09T23:16:43.828Z,99989.98
2022-10-09T23:19:49.080Z,99991.21
2022-10-09T23:22:55.184Z,99993.50
2022-10-09T23:26:04.369Z,99994.89
2022-10-09T23:29:15.657Z,99995.27
2022-10-09T23:32:21.538Z,99996.58
2022-10-09T23:35:27.691Z,99996.91
2022-10-09T23:38:34.484Z,99999.67
2022-10-09T23:41:41.126Z,99997.96
2022-10-09T23:44:47.189Z,99994.97
2022-10-09T23:47:53.095Z,99988.21
2022-10-09T23:50:59.931Z,99981.85
2022-10-09T23:54:07.248Z,99979.42
2022-10-09T23:57:13.350Z,99979.54
